aviador You're here:

CYDN Decoded Metar

DAUPHIN in MB, CANADA
Report Time2018-05-26 15:08:00
UTC Time2018-05-26 15:47:14
Flight Rules ifr IFR
Wind290° at 06 kt
W.Decomp.*RWY 26: 5.5 kt HW 2.3 kt RCW
RWY 32: 4.8 kt HW 3.6 kt LCW
RWY 20: 0.7 kt HW 6.0 kt RCW
W.Rank290° ranks 6
Current wind is below 290° avg. (9.2)
Visibility9999 m
Phenomena:N/A
Clouds:Overcast 008 Hf
Expected CloudBase > 800 ft AGL from Temp-Dew spread
Ceiling800 ft
Temp16°C (ISA +3)
Dew Point14°C (88% RH)
AAT15.1°C
QNH1006 hPa
Density Alt1,808 ft
Elevation1,001 ft
Report Wrong Elevation
Raw Report
SPECI CYDN 261508Z AUTO 29006KT 9SM OVC008 16/14 A2970 RMK SLP063 DENSITY
ALT 1500FT=

Extra information for CYDN:More info

Metar Taf Metar & Taf Last 4 Metars F.Rules Stats Wind Profile Meteogram Temp Stats Airport Information Weather charts Add Link Nearby VenuesMetar ALERT Operation Metar Decoded Social comments